sensor_id;sensor_type;location;lat;lon;timestamp;P1;P2;P0
34240;PMS7003;20503;50.200;19.508;2023-08-21T00:01:49;26;25;18
34240;PMS7003;20503;50.200;19.508;2023-08-21T00:06:58;26;23;16
34240;PMS7003;20503;50.200;19.508;2023-08-21T00:12:07;26;22;16
34240;PMS7003;20503;50.200;19.508;2023-08-21T00:17:16;25;21;16
34240;PMS7003;20503;50.200;19.508;2023-08-21T00:22:25;22;22;16
34240;PMS7003;20503;50.200;19.508;2023-08-21T00:27:33;25;24;16
34240;PMS7003;20503;50.200;19.508;2023-08-21T00:32:42;24;22;16
34240;PMS7003;20503;50.200;19.508;2023-08-21T00:37:49;21;19;15
34240;PMS7003;20503;50.200;19.508;2023-08-21T00:42:59;23;20;15
34240;PMS7003;20503;50.200;19.508;2023-08-21T00:48:07;24;23;18
34240;PMS7003;20503;50.200;19.508;2023-08-21T00:53:16;27;26;20
34240;PMS7003;20503;50.200;19.508;2023-08-21T00:58:23;27;25;18
34240;PMS7003;20503;50.200;19.508;2023-08-21T01:03:32;25;23;17
34240;PMS7003;20503;50.200;19.508;2023-08-21T01:08:46;25;24;17
34240;PMS7003;20503;50.200;19.508;2023-08-21T01:18:57;28;25;20
34240;PMS7003;20503;50.200;19.508;2023-08-21T01:24:06;28;26;17
34240;PMS7003;20503;50.200;19.508;2023-08-21T01:29:14;28;27;19
34240;PMS7003;20503;50.200;19.508;2023-08-21T01:34:24;34;28;18
34240;PMS7003;20503;50.200;19.508;2023-08-21T01:39:31;25;24;17
34240;PMS7003;20503;50.200;19.508;2023-08-21T01:44:40;26;23;17
34240;PMS7003;20503;50.200;19.508;2023-08-21T01:49:48;24;22;18
34240;PMS7003;20503;50.200;19.508;2023-08-21T01:54:56;26;22;16
34240;PMS7003;20503;50.200;19.508;2023-08-21T02:00:06;25;21;16
34240;PMS7003;20503;50.200;19.508;2023-08-21T02:05:13;28;27;18
34240;PMS7003;20503;50.200;19.508;2023-08-21T02:10:22;28;21;16
34240;PMS7003;20503;50.200;19.508;2023-08-21T02:15:30;28;26;18
34240;PMS7003;20503;50.200;19.508;2023-08-21T02:20:38;26;25;17
34240;PMS7003;20503;50.200;19.508;2023-08-21T02:25:46;30;28;18
34240;PMS7003;20503;50.200;19.508;2023-08-21T02:30:54;24;21;17
34240;PMS7003;20503;50.200;19.508;2023-08-21T02:36:03;26;24;17
34240;PMS7003;20503;50.200;19.508;2023-08-21T02:41:11;26;24;17
34240;PMS7003;20503;50.200;19.508;2023-08-21T02:46:19;27;24;18
34240;PMS7003;20503;50.200;19.508;2023-08-21T02:51:28;29;28;20
34240;PMS7003;20503;50.200;19.508;2023-08-21T02:56:35;30;25;17
34240;PMS7003;20503;50.200;19.508;2023-08-21T03:01:45;32;29;20
34240;PMS7003;20503;50.200;19.508;2023-08-21T03:06:52;26;25;19
34240;PMS7003;20503;50.200;19.508;2023-08-21T03:12:01;25;24;18
34240;PMS7003;20503;50.200;19.508;2023-08-21T03:17:10;39;31;20
34240;PMS7003;20503;50.200;19.508;2023-08-21T03:22:18;36;26;18
34240;PMS7003;20503;50.200;19.508;2023-08-21T03:27:27;37;29;17
34240;PMS7003;20503;50.200;19.508;2023-08-21T03:32:36;31;26;18
34240;PMS7003;20503;50.200;19.508;2023-08-21T03:37:44;26;26;18
34240;PMS7003;20503;50.200;19.508;2023-08-21T03:42:52;32;29;19
34240;PMS7003;20503;50.200;19.508;2023-08-21T03:48:00;30;27;20
34240;PMS7003;20503;50.200;19.508;2023-08-21T03:53:09;26;25;19
34240;PMS7003;20503;50.200;19.508;2023-08-21T03:58:17;33;26;18
34240;PMS7003;20503;50.200;19.508;2023-08-21T04:03:25;33;28;18
34240;PMS7003;20503;50.200;19.508;2023-08-21T04:08:33;28;24;16
34240;PMS7003;20503;50.200;19.508;2023-08-21T04:13:42;29;25;17
34240;PMS7003;20503;50.200;19.508;2023-08-21T04:18:50;27;24;17
34240;PMS7003;20503;50.200;19.508;2023-08-21T04:23:59;29;27;18
34240;PMS7003;20503;50.200;19.508;2023-08-21T04:29:07;28;26;18
34240;PMS7003;20503;50.200;19.508;2023-08-21T04:34:15;29;25;18
34240;PMS7003;20503;50.200;19.508;2023-08-21T04:39:24;24;24;18
34240;PMS7003;20503;50.200;19.508;2023-08-21T04:44:31;29;28;18
34240;PMS7003;20503;50.200;19.508;2023-08-21T04:49:40;35;29;20
34240;PMS7003;20503;50.200;19.508;2023-08-21T04:54:49;27;22;17
34240;PMS7003;20503;50.200;19.508;2023-08-21T04:59:56;26;24;17
34240;PMS7003;20503;50.200;19.508;2023-08-21T05:05:05;24;21;15
34240;PMS7003;20503;50.200;19.508;2023-08-21T05:10:13;27;24;17
34240;PMS7003;20503;50.200;19.508;2023-08-21T05:15:21;25;23;17
34240;PMS7003;20503;50.200;19.508;2023-08-21T05:20:29;25;22;16
34240;PMS7003;20503;50.200;19.508;2023-08-21T05:25:38;32;27;18
34240;PMS7003;20503;50.200;19.508;2023-08-21T05:30:48;28;23;16
34240;PMS7003;20503;50.200;19.508;2023-08-21T05:35:56;25;23;18
34240;PMS7003;20503;50.200;19.508;2023-08-21T05:41:04;21;19;14
34240;PMS7003;20503;50.200;19.508;2023-08-21T05:46:13;23;20;14
34240;PMS7003;20503;50.200;19.508;2023-08-21T05:51:22;19;18;13
34240;PMS7003;20503;50.200;19.508;2023-08-21T05:56:30;21;20;15
34240;PMS7003;20503;50.200;19.508;2023-08-21T06:01:38;26;19;14
34240;PMS7003;20503;50.200;19.508;2023-08-21T06:06:47;23;22;16
34240;PMS7003;20503;50.200;19.508;2023-08-21T06:11:55;21;21;17
34240;PMS7003;20503;50.200;19.508;2023-08-21T06:17:04;19;17;14
34240;PMS7003;20503;50.200;19.508;2023-08-21T06:22:12;22;22;15
34240;PMS7003;20503;50.200;19.508;2023-08-21T06:27:20;23;21;16
34240;PMS7003;20503;50.200;19.508;2023-08-21T06:32:29;25;24;16
34240;PMS7003;20503;50.200;19.508;2023-08-21T06:37:37;19;19;16
34240;PMS7003;20503;50.200;19.508;2023-08-21T06:42:46;28;23;18
34240;PMS7003;20503;50.200;19.508;2023-08-21T06:47:54;30;24;16
34240;PMS7003;20503;50.200;19.508;2023-08-21T06:53:03;21;19;15
34240;PMS7003;20503;50.200;19.508;2023-08-21T06:58:12;24;21;15
34240;PMS7003;20503;50.200;19.508;2023-08-21T07:03:20;24;20;17
34240;PMS7003;20503;50.200;19.508;2023-08-21T07:08:29;26;21;16
34240;PMS7003;20503;50.200;19.508;2023-08-21T07:13:38;22;21;15
34240;PMS7003;20503;50.200;19.508;2023-08-21T07:18:46;25;22;17
34240;PMS7003;20503;50.200;19.508;2023-08-21T07:23:54;25;22;16
34240;PMS7003;20503;50.200;19.508;2023-08-21T07:29:03;26;22;16
34240;PMS7003;20503;50.200;19.508;2023-08-21T07:34:11;30;25;19
34240;PMS7003;20503;50.200;19.508;2023-08-21T07:39:19;36;28;20
34240;PMS7003;20503;50.200;19.508;2023-08-21T07:44:27;34;29;19
34240;PMS7003;20503;50.200;19.508;2023-08-21T07:49:36;36;30;20
34240;PMS7003;20503;50.200;19.508;2023-08-21T07:54:44;29;27;19
34240;PMS7003;20503;50.200;19.508;2023-08-21T07:59:52;31;28;18
34240;PMS7003;20503;50.200;19.508;2023-08-21T08:05:01;31;29;19
34240;PMS7003;20503;50.200;19.508;2023-08-21T08:10:10;32;28;20
34240;PMS7003;20503;50.200;19.508;2023-08-21T08:15:18;30;25;19
34240;PMS7003;20503;50.200;19.508;2023-08-21T08:20:27;31;29;19
34240;PMS7003;20503;50.200;19.508;2023-08-21T08:25:35;29;27;19
34240;PMS7003;20503;50.200;19.508;2023-08-21T08:30:44;30;26;20
34240;PMS7003;20503;50.200;19.508;2023-08-21T08:35:52;37;31;20
34240;PMS7003;20503;50.200;19.508;2023-08-21T08:41:02;30;29;20
34240;PMS7003;20503;50.200;19.508;2023-08-21T08:46:09;38;30;20
34240;PMS7003;20503;50.200;19.508;2023-08-21T08:51:18;35;30;20
34240;PMS7003;20503;50.200;19.508;2023-08-21T08:56:26;31;28;18
34240;PMS7003;20503;50.200;19.508;2023-08-21T09:01:34;36;28;19
34240;PMS7003;20503;50.200;19.508;2023-08-21T09:06:43;31;26;19
34240;PMS7003;20503;50.200;19.508;2023-08-21T09:11:52;34;30;19
34240;PMS7003;20503;50.200;19.508;2023-08-21T09:17:01;27;24;19
34240;PMS7003;20503;50.200;19.508;2023-08-21T09:22:13;26;22;18
34240;PMS7003;20503;50.200;19.508;2023-08-21T09:27:17;23;20;15
34240;PMS7003;20503;50.200;19.508;2023-08-21T09:32:25;27;23;16
34240;PMS7003;20503;50.200;19.508;2023-08-21T09:37:33;23;21;15
34240;PMS7003;20503;50.200;19.508;2023-08-21T09:42:42;24;21;16
34240;PMS7003;20503;50.200;19.508;2023-08-21T09:47:51;21;19;15
34240;PMS7003;20503;50.200;19.508;2023-08-21T09:52:58;19;16;13
34240;PMS7003;20503;50.200;19.508;2023-08-21T09:58:07;18;17;12
34240;PMS7003;20503;50.200;19.508;2023-08-21T10:03:20;17;17;13
34240;PMS7003;20503;50.200;19.508;2023-08-21T10:08:25;17;16;13
34240;PMS7003;20503;50.200;19.508;2023-08-21T10:13:35;19;18;13
34240;PMS7003;20503;50.200;19.508;2023-08-21T10:18:43;17;17;14
34240;PMS7003;20503;50.200;19.508;2023-08-21T10:23:51;16;16;13
34240;PMS7003;20503;50.200;19.508;2023-08-21T10:29:00;20;18;14
34240;PMS7003;20503;50.200;19.508;2023-08-21T10:34:09;21;17;12
34240;PMS7003;20503;50.200;19.508;2023-08-21T10:49:33;20;16;13
34240;PMS7003;20503;50.200;19.508;2023-08-21T10:54:44;20;17;12
34240;PMS7003;20503;50.200;19.508;2023-08-21T10:59:50;15;15;11
34240;PMS7003;20503;50.200;19.508;2023-08-21T11:04:58;18;18;13
34240;PMS7003;20503;50.200;19.508;2023-08-21T11:10:06;22;21;16
34240;PMS7003;20503;50.200;19.508;2023-08-21T11:15:15;21;19;15
34240;PMS7003;20503;50.200;19.508;2023-08-21T11:20:23;24;20;16
34240;PMS7003;20503;50.200;19.508;2023-08-21T11:25:31;24;21;16
34240;PMS7003;20503;50.200;19.508;2023-08-21T11:30:39;25;21;15
34240;PMS7003;20503;50.200;19.508;2023-08-21T11:35:49;22;21;17
34240;PMS7003;20503;50.200;19.508;2023-08-21T11:40:57;24;20;16
34240;PMS7003;20503;50.200;19.508;2023-08-21T11:46:06;22;20;16
34240;PMS7003;20503;50.200;19.508;2023-08-21T11:51:13;24;22;16
34240;PMS7003;20503;50.200;19.508;2023-08-21T11:56:22;28;23;18
34240;PMS7003;20503;50.200;19.508;2023-08-21T12:01:33;26;24;17
34240;PMS7003;20503;50.200;19.508;2023-08-21T12:06:43;22;22;17
34240;PMS7003;20503;50.200;19.508;2023-08-21T12:12:41;20;20;15
34240;PMS7003;20503;50.200;19.508;2023-08-21T12:17:49;24;23;16
34240;PMS7003;20503;50.200;19.508;2023-08-21T12:22:58;19;17;12
34240;PMS7003;20503;50.200;19.508;2023-08-21T12:28:07;24;23;16
34240;PMS7003;20503;50.200;19.508;2023-08-21T12:33:14;20;18;16
34240;PMS7003;20503;50.200;19.508;2023-08-21T12:38:23;23;21;16
34240;PMS7003;20503;50.200;19.508;2023-08-21T12:43:31;25;20;16
34240;PMS7003;20503;50.200;19.508;2023-08-21T12:48:39;25;21;17
34240;PMS7003;20503;50.200;19.508;2023-08-21T12:53:48;20;19;15
34240;PMS7003;20503;50.200;19.508;2023-08-21T12:58:56;20;18;15
34240;PMS7003;20503;50.200;19.508;2023-08-21T13:04:05;27;22;16
34240;PMS7003;20503;50.200;19.508;2023-08-21T13:09:13;24;22;15
34240;PMS7003;20503;50.200;19.508;2023-08-21T13:14:21;18;18;13
34240;PMS7003;20503;50.200;19.508;2023-08-21T13:19:29;21;20;15
34240;PMS7003;20503;50.200;19.508;2023-08-21T13:24:37;20;20;15
34240;PMS7003;20503;50.200;19.508;2023-08-21T13:29:46;24;23;17
34240;PMS7003;20503;50.200;19.508;2023-08-21T13:34:54;20;19;14
34240;PMS7003;20503;50.200;19.508;2023-08-21T13:40:03;21;19;14
34240;PMS7003;20503;50.200;19.508;2023-08-21T13:45:12;26;22;17
34240;PMS7003;20503;50.200;19.508;2023-08-21T13:50:18;27;25;16
34240;PMS7003;20503;50.200;19.508;2023-08-21T13:55:26;23;20;15
34240;PMS7003;20503;50.200;19.508;2023-08-21T14:00:35;23;22;17
34240;PMS7003;20503;50.200;19.508;2023-08-21T14:05:44;20;19;15
34240;PMS7003;20503;50.200;19.508;2023-08-21T14:10:52;30;24;16
34240;PMS7003;20503;50.200;19.508;2023-08-21T14:16:00;21;20;15
34240;PMS7003;20503;50.200;19.508;2023-08-21T14:21:09;24;22;15
34240;PMS7003;20503;50.200;19.508;2023-08-21T14:26:17;26;21;16
34240;PMS7003;20503;50.200;19.508;2023-08-21T14:31:26;43;35;22
34240;PMS7003;20503;50.200;19.508;2023-08-21T14:36:33;24;24;18
34240;PMS7003;20503;50.200;19.508;2023-08-21T14:41:42;22;20;16
34240;PMS7003;20503;50.200;19.508;2023-08-21T14:46:52;22;20;17
34240;PMS7003;20503;50.200;19.508;2023-08-21T14:51:58;24;21;16
34240;PMS7003;20503;50.200;19.508;2023-08-21T14:57:06;19;18;15
34240;PMS7003;20503;50.200;19.508;2023-08-21T15:02:18;20;16;12
34240;PMS7003;20503;50.200;19.508;2023-08-21T15:07:23;21;21;14
34240;PMS7003;20503;50.200;19.508;2023-08-21T15:12:30;19;18;13
34240;PMS7003;20503;50.200;19.508;2023-08-21T15:17:39;23;19;14
34240;PMS7003;20503;50.200;19.508;2023-08-21T15:22:47;27;22;15
34240;PMS7003;20503;50.200;19.508;2023-08-21T15:27:55;21;21;16
34240;PMS7003;20503;50.200;19.508;2023-08-21T15:33:03;21;19;15
34240;PMS7003;20503;50.200;19.508;2023-08-21T15:38:11;29;23;16
34240;PMS7003;20503;50.200;19.508;2023-08-21T15:43:20;21;18;14
34240;PMS7003;20503;50.200;19.508;2023-08-21T15:48:28;22;21;17
34240;PMS7003;20503;50.200;19.508;2023-08-21T15:53:36;27;26;19
34240;PMS7003;20503;50.200;19.508;2023-08-21T15:58:44;32;26;19
34240;PMS7003;20503;50.200;19.508;2023-08-21T16:03:52;33;27;19
34240;PMS7003;20503;50.200;19.508;2023-08-21T16:09:01;38;28;20
34240;PMS7003;20503;50.200;19.508;2023-08-21T16:14:10;42;31;19
34240;PMS7003;20503;50.200;19.508;2023-08-21T16:19:18;28;26;18
34240;PMS7003;20503;50.200;19.508;2023-08-21T16:24:26;32;29;19
34240;PMS7003;20503;50.200;19.508;2023-08-21T16:29:35;27;25;18
34240;PMS7003;20503;50.200;19.508;2023-08-21T16:34:43;35;28;19
34240;PMS7003;20503;50.200;19.508;2023-08-21T16:39:50;32;28;20
34240;PMS7003;20503;50.200;19.508;2023-08-21T16:44:59;29;29;17
34240;PMS7003;20503;50.200;19.508;2023-08-21T16:50:08;32;26;19
34240;PMS7003;20503;50.200;19.508;2023-08-21T16:55:17;27;24;19
34240;PMS7003;20503;50.200;19.508;2023-08-21T17:00:24;27;25;19
34240;PMS7003;20503;50.200;19.508;2023-08-21T17:05:34;34;28;19
34240;PMS7003;20503;50.200;19.508;2023-08-21T17:10:42;35;30;20
34240;PMS7003;20503;50.200;19.508;2023-08-21T17:15:49;33;28;20
34240;PMS7003;20503;50.200;19.508;2023-08-21T17:20:59;26;26;20
34240;PMS7003;20503;50.200;19.508;2023-08-21T17:26:07;29;24;16
34240;PMS7003;20503;50.200;19.508;2023-08-21T17:31:15;27;25;18
34240;PMS7003;20503;50.200;19.508;2023-08-21T17:36:24;29;25;17
34240;PMS7003;20503;50.200;19.508;2023-08-21T17:41:32;27;25;20
34240;PMS7003;20503;50.200;19.508;2023-08-21T17:46:41;25;23;19
34240;PMS7003;20503;50.200;19.508;2023-08-21T17:51:49;26;20;17
34240;PMS7003;20503;50.200;19.508;2023-08-21T17:56:58;23;23;16
34240;PMS7003;20503;50.200;19.508;2023-08-21T18:02:06;29;22;17
34240;PMS7003;20503;50.200;19.508;2023-08-21T18:07:14;26;23;17
34240;PMS7003;20503;50.200;19.508;2023-08-21T18:12:23;20;20;15
34240;PMS7003;20503;50.200;19.508;2023-08-21T18:17:31;21;20;16
34240;PMS7003;20503;50.200;19.508;2023-08-21T18:22:40;18;18;14
34240;PMS7003;20503;50.200;19.508;2023-08-21T18:27:48;22;21;16
34240;PMS7003;20503;50.200;19.508;2023-08-21T18:32:57;25;19;15
34240;PMS7003;20503;50.200;19.508;2023-08-21T18:38:05;23;20;13
34240;PMS7003;20503;50.200;19.508;2023-08-21T18:43:13;19;17;14
34240;PMS7003;20503;50.200;19.508;2023-08-21T18:48:22;25;19;15
34240;PMS7003;20503;50.200;19.508;2023-08-21T18:53:31;17;17;14
34240;PMS7003;20503;50.200;19.508;2023-08-21T18:58:39;19;17;13
34240;PMS7003;20503;50.200;19.508;2023-08-21T19:03:48;17;17;12
34240;PMS7003;20503;50.200;19.508;2023-08-21T19:08:56;18;16;12
34240;PMS7003;20503;50.200;19.508;2023-08-21T19:14:04;20;16;12
34240;PMS7003;20503;50.200;19.508;2023-08-21T19:19:12;19;19;14
34240;PMS7003;20503;50.200;19.508;2023-08-21T19:24:21;16;16;13
34240;PMS7003;20503;50.200;19.508;2023-08-21T19:29:30;18;17;12
34240;PMS7003;20503;50.200;19.508;2023-08-21T19:34:38;17;15;13
34240;PMS7003;20503;50.200;19.508;2023-08-21T19:39:46;18;16;13
34240;PMS7003;20503;50.200;19.508;2023-08-21T19:44:55;23;20;13
34240;PMS7003;20503;50.200;19.508;2023-08-21T19:50:03;21;16;12
34240;PMS7003;20503;50.200;19.508;2023-08-21T19:55:11;16;16;13
34240;PMS7003;20503;50.200;19.508;2023-08-21T20:00:19;17;17;12
34240;PMS7003;20503;50.200;19.508;2023-08-21T20:05:28;19;17;13
34240;PMS7003;20503;50.200;19.508;2023-08-21T20:10:37;18;16;13
34240;PMS7003;20503;50.200;19.508;2023-08-21T20:15:46;22;19;12
34240;PMS7003;20503;50.200;19.508;2023-08-21T20:20:53;21;17;14
34240;PMS7003;20503;50.200;19.508;2023-08-21T20:26:01;17;16;11
34240;PMS7003;20503;50.200;19.508;2023-08-21T20:31:10;20;16;10
34240;PMS7003;20503;50.200;19.508;2023-08-21T20:36:17;17;15;12
34240;PMS7003;20503;50.200;19.508;2023-08-21T20:41:25;13;13;10
34240;PMS7003;20503;50.200;19.508;2023-08-21T20:46:33;13;13;10
34240;PMS7003;20503;50.200;19.508;2023-08-21T20:51:42;12;12;9
34240;PMS7003;20503;50.200;19.508;2023-08-21T20:56:50;21;19;14
34240;PMS7003;20503;50.200;19.508;2023-08-21T21:01:58;17;17;13
34240;PMS7003;20503;50.200;19.508;2023-08-21T21:07:06;18;18;13
34240;PMS7003;20503;50.200;19.508;2023-08-21T21:12:15;21;18;14
34240;PMS7003;20503;50.200;19.508;2023-08-21T21:17:22;21;18;11
34240;PMS7003;20503;50.200;19.508;2023-08-21T21:22:30;17;14;11
34240;PMS7003;20503;50.200;19.508;2023-08-21T21:27:39;12;12;10
34240;PMS7003;20503;50.200;19.508;2023-08-21T21:32:46;18;15;12
34240;PMS7003;20503;50.200;19.508;2023-08-21T21:37:54;16;15;12
34240;PMS7003;20503;50.200;19.508;2023-08-21T21:43:03;16;13;11
34240;PMS7003;20503;50.200;19.508;2023-08-21T21:48:11;15;15;11
34240;PMS7003;20503;50.200;19.508;2023-08-21T21:58:27;19;17;13
34240;PMS7003;20503;50.200;19.508;2023-08-21T22:03:35;15;15;12
34240;PMS7003;20503;50.200;19.508;2023-08-21T22:08:44;15;14;10
34240;PMS7003;20503;50.200;19.508;2023-08-21T22:13:52;14;13;9
34240;PMS7003;20503;50.200;19.508;2023-08-21T22:19:01;16;14;9
34240;PMS7003;20503;50.200;19.508;2023-08-21T22:24:09;18;16;12
34240;PMS7003;20503;50.200;19.508;2023-08-21T22:29:17;15;14;11
34240;PMS7003;20503;50.200;19.508;2023-08-21T22:34:25;18;17;12
34240;PMS7003;20503;50.200;19.508;2023-08-21T22:39:33;16;16;12
34240;PMS7003;20503;50.200;19.508;2023-08-21T22:44:41;16;15;11
34240;PMS7003;20503;50.200;19.508;2023-08-21T22:49:51;22;18;12
34240;PMS7003;20503;50.200;19.508;2023-08-21T22:54:59;19;16;12
34240;PMS7003;20503;50.200;19.508;2023-08-21T23:00:08;17;14;11
34240;PMS7003;20503;50.200;19.508;2023-08-21T23:05:17;17;15;11
34240;PMS7003;20503;50.200;19.508;2023-08-21T23:10:25;17;17;13
34240;PMS7003;20503;50.200;19.508;2023-08-21T23:15:33;18;14;10
34240;PMS7003;20503;50.200;19.508;2023-08-21T23:20:41;15;14;10
34240;PMS7003;20503;50.200;19.508;2023-08-21T23:25:53;18;16;11
34240;PMS7003;20503;50.200;19.508;2023-08-21T23:30:58;15;14;11
34240;PMS7003;20503;50.200;19.508;2023-08-21T23:36:06;15;13;11
34240;PMS7003;20503;50.200;19.508;2023-08-21T23:41:15;15;15;11
34240;PMS7003;20503;50.200;19.508;2023-08-21T23:46:23;18;14;10
34240;PMS7003;20503;50.200;19.508;2023-08-21T23:51:32;14;12;10
34240;PMS7003;20503;50.200;19.508;2023-08-21T23:56:40;17;14;11
